world map with RPMR marked

RPMR - Airport

This information may not be accurate or current and is not valid for navigation or flight planning. No warranty of fitness for any purpose is made or implied.

flag of Philippines

Donate via PayPal

Additional information is available on the NEW Great Circle Mapper

Location
City:  Tambler, Mindanao Island, Philippines
Near (Alt.):General Santos Intl
ICAO:RPMR

Details
Type:Airport (Aerodrome, Airfield)
Use:Public/Civil
Latitude:6°03'29"N (6.058003)
Longitude:125°05'46"E (125.096033)
Datum:WGS 1984
Elevation:505 ft (154 m)
Runways:1
Longest:10587 × 148 ft (3227 × 45 m)

Time
Timezone:UTC+8
Local Time:

Weather
TAF:RPMR  201100Z 2012/2112 04006KT 9999 FEW018 BKN250 TEMPO 2012/2018 320023KT 9000 -SHRA FEW017CB FEW018 BKN080

Related Locations
Nearby:
Farthest:PGG: 12362 mi / 19894 km
Progresso, PA, BR

Find:

   beyond  
but within

Other Information
Maps:
Links:
Sources:

  


 


Great Circle Mapper   Great Circle Mapper
Great Circle Mapper FAQ   Great Circle Mapper FAQ
  Karl's Home Page
KLSē   KLSē Home
   GC on Facebook
Airlines of the World   Airlines of the World
Donate via PayPal


Copyright © 2004-2013, Karl L. Swartz. All rights reserved.
All trademarks mentioned herein belong to their respective owners.

Please see credits for attribution and copyright information.

Karl Swartz <karl@kls2.com>
  Powered by FreeBSD
Valid HTML 4.01!
Labeled with ICRA
hCard Microformat
Geo Microformat